Castle Donington, United Kingdom
Current Conditions -  °F | °C
As of 9:50 PM on Wednesday 26 Nov 2014 (Local Time) from EGNX Reporting Station
Moderate Fog Moderate Fog  
Wind Chill: 45°   Ceiling: 100
Heat Index: 45°   Visibility: 0.31mi
Dew Point: 45°   Wind: 2mph
Humidity: 100%   Direction: 10°N
Pressure: 29.77"   Gusts: NA
Location:  52.84°N, 1.34°W
Report Text: EGNX 262150Z 01002KT 0500 R27/0350 FG BKN001 07/07 Q1008
Loading
Personal Weather Stations






























Interactive Weather Map New forecast layout! Learn more

10-Day Weather Forecast

Advertisements
Track Severe Weather on mobile